Nearby METAR Reports

 

KSJC - San Jose, California, USA
Distance from station: NØ 14km
Oppdatert: 04/08/2021 07:53
Few Clouds
Few Clouds
 Vind fra NNV
Vind: NNV 13 km/h
Temperatur: 16°C
Duggpunkt: 13°C
Fuktighet: 83%
Barometer: 1014.9 hPa
Clouds: Few Clouds
Visibility: 16 km
Cloud details: Few Clouds 396 m
2021/08/04 05:53 KSJC 040553Z 33007KT 10SM FEW013 16/13 A2997 RMK AO2 SLP147 T01610133 10272 20161 51016
KNUQ - Moffett Nas/Mtn, California, USA
Distance from station: N 14km
Oppdatert: 04/08/2021 07:55
Klart
Klart
 Vind fra NV
Vind: NV 7 km/h
Temperatur: 16°C
Duggpunkt: 13°C
Fuktighet: 83%
Barometer: 1014.9 hPa
Clouds: Klart
Visibility: 16 km
2021/08/04 05:55 KNUQ 040555Z AUTO 32004KT 10SM CLR 16/13 A2997 RMK AO2
 
KPAO - Palo Alto, California, USA
Distance from station: NNV 23km
Oppdatert: 04/08/2021 05:47
NOT Current
Klart
Klart
 Vind fra NNV
Vind: NNV 26 km/h
Temperatur: 17°C
Duggpunkt: 14°C
Fuktighet: 83%
Barometer: 1014.2 hPa
Clouds: Klart
Visibility: 16 km
2021/08/04 03:47 KPAO 040347Z 34014KT 10SM SKC 17/14 A2995 RMK LAST
KRHV - San Jose/Reid, California, USA
Distance from station: ØNØ 19km
Oppdatert: 04/08/2021 06:47
NOT Current
Klart
Klart
 Vind fra VNV
Vind: VNV 9 km/h
Temperatur: 18°C
Duggpunkt: 14°C
Fuktighet: 78%
Barometer: 1014.9 hPa
Clouds: Klart
Visibility: 16 km
2021/08/04 04:47 KRHV 040447Z 29005KT 10SM SKC 18/14 A2997 RMK LAST
 
KOAK - Oakland, California, USA
Distance from station: NNV 50km
Oppdatert: 04/08/2021 07:53
Overskyet
Overskyet
 Vind fra VNV
Vind: VNV 13 km/h
Temperatur: 14°C
Duggpunkt: 12°C
Fuktighet: 88%
Barometer: 1015.2 hPa
Clouds: Overskyet
Visibility: 16 km
Cloud details: Overskyet 183 m
2021/08/04 05:53 KOAK 040553Z 30007KT 10SM OVC006 14/12 A2998 RMK AO2 SLP153 T01440122 10217 20144 51010
KSQL - San Carlos Airpo, California, USA
Distance from station: NV 34km
Oppdatert: 04/08/2021 08:15
Klart
Klart
 Vind fra calm
Vind: Stille
Temperatur: 15°C
Duggpunkt: 12°C
Fuktighet: 82%
Barometer: 1014.9 hPa
Clouds: Klart
Visibility: 16 km
2021/08/04 06:15 KSQL 040615Z AUTO 00000KT 10SM CLR 15/12 A2997 RMK AO2
 
KSFO - San Francisco, California, USA
Distance from station: NV 49km
Oppdatert: 04/08/2021 07:56
Delvis skyet
Delvis skyet
 Vind fra V
Vind: V 13 km/h
Temperatur: 14°C
Duggpunkt: 12°C
Fuktighet: 88%
Barometer: 1014.9 hPa
Clouds: Delvis skyet
Visibility: 16 km
Cloud details: Few Clouds 91 m
Delvis skyet 244 m
2021/08/04 05:56 KSFO 040556Z 28007KT 10SM FEW003 SCT008 14/12 A2997 RMK AO2 SLP147 T01390117 10194 20133 51009 $
KE16 - San Martin, California, USA
Distance from station: ØSØ 43km
Oppdatert: 04/08/2021 07:55
Klart
Klart
 Vind fra S
Vind: S 6 km/h
Temperatur: 15°C
Duggpunkt: 12°C
Fuktighet: 82%
Barometer: 1015.6 hPa
Clouds: Klart
Visibility: 16 km
2021/08/04 05:55 KE16 040555Z AUTO 19003KT 10SM CLR 15/12 A2999 RMK AO2 PWINO PNO
 
KWVI - Watsonville, California, USA
Distance from station: SSØ 44km
Oppdatert: 04/08/2021 07:53
Overskyet
Overskyet
 Vind fra SØ
Vind: SØ 7 km/h
Temperatur: 13°C
Duggpunkt: 13°C
Fuktighet: 100%
Barometer: 1015.6 hPa
Clouds: Overskyet
Visibility: 16 km
Cloud details: Overskyet 122 m
2021/08/04 05:53 KWVI 040553Z AUTO 13004KT 10SM OVC004 13/13 A2999 RMK AO2 SLP153 T01330128 10206 20128 50004
KHAF - Half Moon Bay, California, USA
Distance from station: VNV 50km
Oppdatert: 09/07/2021 16:35
NOT Current
Lett regn, Klart
Lett regn, Klart
 
Temperatur: 13°C
Duggpunkt: 12°C
Fuktighet: 94%
Barometer: 1012.9 hPa
Oversikt: Lett regn
Clouds: Klart
Visibility: 6 km
2021/07/09 14:35 KHAF 091435Z AUTO 4SM -RA CLR 13/12 A2991 RMK AO2
 
KHWD - Hayward, California, USA
Distance from station: N 44km
Oppdatert: 04/08/2021 08:11
Hovedsaklig skyet
Hovedsaklig skyet
 Vind fra N
Vind: N 9 km/h
Temperatur: 14°C
Duggpunkt: 12°C
Fuktighet: 88%
Barometer: 1014.9 hPa
Clouds: Hovedsaklig skyet
Visibility: 16 km
Cloud details: Hovedsaklig skyet 244 m
2021/08/04 06:11 KHWD 040611Z 35005KT 10SM BKN008 14/12 A2997 RMK AO2 T01390122
KLVK - Livermore, California, USA
Distance from station: NNØ 51km
Oppdatert: 04/08/2021 07:53
Klart
Klart
 Vind fra VNV
Vind: VNV 15 km/h
Temperatur: 18°C
Duggpunkt: 9°C
Fuktighet: 56%
Barometer: 1013.5 hPa
Clouds: Klart
Visibility: 16 km
2021/08/04 05:53 KLVK 040553Z AUTO 29008KT 10SM CLR 18/09 A2993 RMK AO2 SLP131 T01830089 10344 20183 50009